sensor_id;sensor_type;location;lat;lon;timestamp;pressure;altitude;pressure_sealevel;temperature;humidity
40982;BME280;26708;50.304;19.028;2023-08-21T00:26:30;98646.78;;;23.24;62.00
40982;BME280;26708;50.304;19.028;2023-08-21T00:29:23;98555.81;;;22.59;62.09
40982;BME280;26708;50.304;19.028;2023-08-21T00:32:28;98612.47;;;22.81;61.95
40982;BME280;26708;50.304;19.028;2023-08-21T00:35:49;98658.69;;;23.00;62.07
40982;BME280;26708;50.304;19.028;2023-08-21T01:28:02;98790.78;;;23.30;63.63
40982;BME280;26708;50.304;19.028;2023-08-21T01:30:08;98551.34;;;21.87;63.65
40982;BME280;26708;50.304;19.028;2023-08-21T01:32:21;98823.03;;;23.44;63.58
40982;BME280;26708;50.304;19.028;2023-08-21T01:34:32;98631.63;;;22.36;63.63
40982;BME280;26708;50.304;19.028;2023-08-21T01:36:39;98741.72;;;22.95;63.76
40982;BME280;26708;50.304;19.028;2023-08-21T01:38:48;98749.78;;;23.12;63.76
40982;BME280;26708;50.304;19.028;2023-08-21T01:40:54;98638.94;;;22.50;63.83
40982;BME280;26708;50.304;19.028;2023-08-21T01:43:03;98732.72;;;22.98;64.00
40982;BME280;26708;50.304;19.028;2023-08-21T01:45:09;98804.47;;;23.41;63.86
40982;BME280;26708;50.304;19.028;2023-08-21T01:47:14;98804.16;;;23.47;63.79
40982;BME280;26708;50.304;19.028;2023-08-21T01:49:19;98855.69;;;23.67;63.53
40982;BME280;26708;50.304;19.028;2023-08-21T01:51:24;98762.63;;;23.23;63.68
40982;BME280;26708;50.304;19.028;2023-08-21T01:53:29;98604.97;;;22.18;63.68
40982;BME280;26708;50.304;19.028;2023-08-21T01:57:55;98841.47;;;23.67;63.89
40982;BME280;26708;50.304;19.028;2023-08-21T02:00:05;98736.63;;;22.91;63.57
40982;BME280;26708;50.304;19.028;2023-08-21T02:02:16;98753.94;;;23.18;63.97
40982;BME280;26708;50.304;19.028;2023-08-21T02:04:21;98835.41;;;23.63;64.04
40982;BME280;26708;50.304;19.028;2023-08-21T02:06:27;98543.22;;;21.90;63.86
40982;BME280;26708;50.304;19.028;2023-08-21T02:08:32;98822.09;;;23.45;63.87
40982;BME280;26708;50.304;19.028;2023-08-21T02:13:18;98589.34;;;22.10;63.81
40982;BME280;26708;50.304;19.028;2023-08-21T02:15:26;98847.25;;;23.58;63.88
40982;BME280;26708;50.304;19.028;2023-08-21T02:17:30;98483.94;;;21.48;63.88
40982;BME280;26708;50.304;19.028;2023-08-21T02:19:36;98574.50;;;22.05;64.07
40982;BME280;26708;50.304;19.028;2023-08-21T02:21:41;98616.25;;;22.06;64.11
40982;BME280;26708;50.304;19.028;2023-08-21T02:23:45;98472.50;;;21.46;64.10
40982;BME280;26708;50.304;19.028;2023-08-21T02:25:54;98828.53;;;23.58;64.40
40982;BME280;26708;50.304;19.028;2023-08-21T02:27:59;98570.53;;;22.13;64.39
40982;BME280;26708;50.304;19.028;2023-08-21T02:30:01;98731.41;;;22.88;64.33
40982;BME280;26708;50.304;19.028;2023-08-21T02:32:11;98638.25;;;22.46;64.14
40982;BME280;26708;50.304;19.028;2023-08-21T02:34:15;98679.09;;;22.67;63.84
40982;BME280;26708;50.304;19.028;2023-08-21T02:36:22;98712.81;;;22.86;63.84
40982;BME280;26708;50.304;19.028;2023-08-21T02:38:28;98584.50;;;22.18;63.83
40982;BME280;26708;50.304;19.028;2023-08-21T02:40:33;98465.25;;;21.49;63.87
40982;BME280;26708;50.304;19.028;2023-08-21T02:42:38;98629.19;;;22.32;63.86
40982;BME280;26708;50.304;19.028;2023-08-21T02:44:41;98547.19;;;22.00;64.05
40982;BME280;26708;50.304;19.028;2023-08-21T02:46:46;98555.19;;;21.81;63.95
40982;BME280;26708;50.304;19.028;2023-08-21T02:48:53;98712.31;;;22.78;64.04
40982;BME280;26708;50.304;19.028;2023-08-21T02:50:59;98573.88;;;22.00;63.83
40982;BME280;26708;50.304;19.028;2023-08-21T02:53:04;98751.66;;;23.10;63.87
40982;BME280;26708;50.304;19.028;2023-08-21T02:55:09;98475.84;;;21.51;63.86
40982;BME280;26708;50.304;19.028;2023-08-21T02:57:14;98800.78;;;23.43;64.13
40982;BME280;26708;50.304;19.028;2023-08-21T02:59:19;98812.34;;;23.44;63.96
40982;BME280;26708;50.304;19.028;2023-08-21T03:01:23;98625.78;;;22.28;63.98
40982;BME280;26708;50.304;19.028;2023-08-21T03:03:29;98578.75;;;22.09;63.92
40982;BME280;26708;50.304;19.028;2023-08-21T03:05:36;98577.81;;;22.10;64.01
40982;BME280;26708;50.304;19.028;2023-08-21T03:07:41;98533.78;;;21.83;64.07
40982;BME280;26708;50.304;19.028;2023-08-21T03:09:47;98592.00;;;22.10;63.82
40982;BME280;26708;50.304;19.028;2023-08-21T03:11:52;98684.84;;;22.58;64.04
40982;BME280;26708;50.304;19.028;2023-08-21T03:13:57;98771.03;;;22.97;63.49
40982;BME280;26708;50.304;19.028;2023-08-21T03:16:03;98832.44;;;23.34;63.46
40982;BME280;26708;50.304;19.028;2023-08-21T03:18:08;98834.38;;;23.30;63.19
40982;BME280;26708;50.304;19.028;2023-08-21T03:20:14;98746.50;;;22.89;63.19
40982;BME280;26708;50.304;19.028;2023-08-21T03:22:22;98561.31;;;21.65;63.15
40982;BME280;26708;50.304;19.028;2023-08-21T03:24:27;98660.69;;;22.24;63.38
40982;BME280;26708;50.304;19.028;2023-08-21T03:28:57;98818.50;;;23.09;63.70
40982;BME280;26708;50.304;19.028;2023-08-21T03:31:02;98563.47;;;21.38;63.64
40982;BME280;26708;50.304;19.028;2023-08-21T03:33:06;98524.00;;;21.28;63.68
40982;BME280;26708;50.304;19.028;2023-08-21T03:38:08;98600.69;;;21.58;63.95
40982;BME280;26708;50.304;19.028;2023-08-21T03:40:26;98829.16;;;22.92;64.25
40982;BME280;26708;50.304;19.028;2023-08-21T03:42:31;98802.94;;;22.81;64.29
40982;BME280;26708;50.304;19.028;2023-08-21T03:44:37;98594.53;;;21.58;64.39
40982;BME280;26708;50.304;19.028;2023-08-21T03:46:43;98778.66;;;22.49;64.52
40982;BME280;26708;50.304;19.028;2023-08-21T03:48:47;98764.19;;;22.54;64.73
40982;BME280;26708;50.304;19.028;2023-08-21T03:50:51;98822.22;;;22.88;64.80
40982;BME280;26708;50.304;19.028;2023-08-21T03:52:57;98825.69;;;22.90;64.66
40982;BME280;26708;50.304;19.028;2023-08-21T03:55:04;98822.88;;;22.93;64.78
40982;BME280;26708;50.304;19.028;2023-08-21T03:57:09;98819.25;;;22.94;64.79
40982;BME280;26708;50.304;19.028;2023-08-21T03:59:14;98596.56;;;21.51;64.75
40982;BME280;26708;50.304;19.028;2023-08-21T04:01:19;98781.47;;;22.66;64.86
40982;BME280;26708;50.304;19.028;2023-08-21T04:03:23;98823.53;;;22.98;64.85
40982;BME280;26708;50.304;19.028;2023-08-21T04:05:29;98827.03;;;22.98;64.63
40982;BME280;26708;50.304;19.028;2023-08-21T04:07:33;98845.69;;;23.00;64.65
40982;BME280;26708;50.304;19.028;2023-08-21T04:09:38;98827.69;;;23.03;64.55
40982;BME280;26708;50.304;19.028;2023-08-21T04:11:47;98538.75;;;21.35;64.36
40982;BME280;26708;50.304;19.028;2023-08-21T04:13:52;98691.63;;;22.09;64.34
40982;BME280;26708;50.304;19.028;2023-08-21T04:15:57;98569.38;;;21.45;64.28
40982;BME280;26708;50.304;19.028;2023-08-21T04:18:00;98840.19;;;23.03;64.16
40982;BME280;26708;50.304;19.028;2023-08-21T04:20:06;98812.25;;;22.91;64.43
40982;BME280;26708;50.304;19.028;2023-08-21T04:22:11;98708.28;;;22.33;64.26
40982;BME280;26708;50.304;19.028;2023-08-21T04:24:17;98649.06;;;21.88;64.57
40982;BME280;26708;50.304;19.028;2023-08-21T04:28:51;98704.16;;;22.26;64.26
40982;BME280;26708;50.304;19.028;2023-08-21T04:30:57;98753.19;;;22.62;64.26
40982;BME280;26708;50.304;19.028;2023-08-21T04:33:03;98764.13;;;22.74;64.21
40982;BME280;26708;50.304;19.028;2023-08-21T04:35:08;98698.00;;;22.25;64.04
40982;BME280;26708;50.304;19.028;2023-08-21T04:37:14;98817.44;;;23.13;64.11
40982;BME280;26708;50.304;19.028;2023-08-21T04:39:19;98653.13;;;22.15;63.80
40982;BME280;26708;50.304;19.028;2023-08-21T04:41:23;98774.84;;;22.91;63.92
40982;BME280;26708;50.304;19.028;2023-08-21T04:45:52;98770.63;;;22.87;63.96
40982;BME280;26708;50.304;19.028;2023-08-21T04:47:59;98578.66;;;21.73;63.78
40982;BME280;26708;50.304;19.028;2023-08-21T04:50:05;98777.47;;;22.93;63.89
40982;BME280;26708;50.304;19.028;2023-08-21T04:52:10;98842.72;;;23.24;63.66
40982;BME280;26708;50.304;19.028;2023-08-21T04:54:15;98823.94;;;23.26;64.08
40982;BME280;26708;50.304;19.028;2023-08-21T04:56:21;98637.78;;;22.01;63.88
40982;BME280;26708;50.304;19.028;2023-08-21T04:58:26;98767.56;;;22.95;63.89
40982;BME280;26708;50.304;19.028;2023-08-21T05:00:31;98636.97;;;22.18;63.74
40982;BME280;26708;50.304;19.028;2023-08-21T05:02:39;98839.84;;;23.46;63.44
40982;BME280;26708;50.304;19.028;2023-08-21T05:04:43;98824.59;;;23.48;63.31
40982;BME280;26708;50.304;19.028;2023-08-21T05:06:48;98716.94;;;22.75;63.30
40982;BME280;26708;50.304;19.028;2023-08-21T05:08:53;98841.81;;;23.59;63.29
40982;BME280;26708;50.304;19.028;2023-08-21T05:10:59;98538.19;;;21.84;62.90
40982;BME280;26708;50.304;19.028;2023-08-21T05:13:08;98835.41;;;23.63;63.16
40982;BME280;26708;50.304;19.028;2023-08-21T05:15:13;98768.69;;;23.08;63.20
40982;BME280;26708;50.304;19.028;2023-08-21T05:17:20;98798.16;;;23.42;63.30
40982;BME280;26708;50.304;19.028;2023-08-21T05:19:27;98842.94;;;23.72;63.29
40982;BME280;26708;50.304;19.028;2023-08-21T05:21:33;98660.41;;;22.67;62.95
40982;BME280;26708;50.304;19.028;2023-08-21T05:23:38;98783.78;;;23.44;63.13
40982;BME280;26708;50.304;19.028;2023-08-21T05:25:45;98868.72;;;23.92;62.98
40982;BME280;26708;50.304;19.028;2023-08-21T05:27:52;98665.81;;;22.99;62.86
40982;BME280;26708;50.304;19.028;2023-08-21T05:29:57;98632.28;;;22.77;62.71
40982;BME280;26708;50.304;19.028;2023-08-21T05:32:02;98786.69;;;23.74;62.39
40982;BME280;26708;50.304;19.028;2023-08-21T05:34:08;98548.91;;;22.36;62.31
40982;BME280;26708;50.304;19.028;2023-08-21T05:36:15;98734.25;;;23.37;61.96
40982;BME280;26708;50.304;19.028;2023-08-21T05:38:20;98725.88;;;23.28;61.69
40982;BME280;26708;50.304;19.028;2023-08-21T05:40:36;98848.53;;;24.19;61.80
40982;BME280;26708;50.304;19.028;2023-08-21T05:42:41;98677.81;;;23.09;62.08
40982;BME280;26708;50.304;19.028;2023-08-21T05:44:46;98546.09;;;22.39;62.24
40982;BME280;26708;50.304;19.028;2023-08-21T05:46:53;98653.66;;;23.11;62.61
40982;BME280;26708;50.304;19.028;2023-08-21T05:48:59;98655.94;;;23.18;62.57
40982;BME280;26708;50.304;19.028;2023-08-21T05:51:04;98720.66;;;23.59;62.50
40982;BME280;26708;50.304;19.028;2023-08-21T05:53:13;98899.16;;;24.40;62.79
40982;BME280;26708;50.304;19.028;2023-08-21T05:55:18;98763.66;;;23.71;62.30
40982;BME280;26708;50.304;19.028;2023-08-21T05:57:23;98742.03;;;23.76;62.45
40982;BME280;26708;50.304;19.028;2023-08-21T05:59:31;98782.69;;;23.82;62.05
40982;BME280;26708;50.304;19.028;2023-08-21T06:01:38;98821.38;;;24.26;61.44
40982;BME280;26708;50.304;19.028;2023-08-21T06:03:43;98813.75;;;24.19;59.81
40982;BME280;26708;50.304;19.028;2023-08-21T06:05:59;98824.56;;;24.17;60.71
40982;BME280;26708;50.304;19.028;2023-08-21T06:08:04;98784.53;;;23.99;61.12
40982;BME280;26708;50.304;19.028;2023-08-21T06:10:13;98729.03;;;23.68;62.12
40982;BME280;26708;50.304;19.028;2023-08-21T06:12:18;98811.16;;;24.17;62.29
40982;BME280;26708;50.304;19.028;2023-08-21T06:14:23;98663.50;;;23.10;62.92
40982;BME280;26708;50.304;19.028;2023-08-21T06:16:32;98832.22;;;24.23;63.60
40982;BME280;26708;50.304;19.028;2023-08-21T06:18:38;98607.94;;;22.66;63.33
40982;BME280;26708;50.304;19.028;2023-08-21T06:20:43;98891.13;;;24.40;63.87
40982;BME280;26708;50.304;19.028;2023-08-21T06:22:48;98782.16;;;23.76;63.62
40982;BME280;26708;50.304;19.028;2023-08-21T06:24:57;98900.94;;;24.40;64.02
40982;BME280;26708;50.304;19.028;2023-08-21T06:27:04;98653.59;;;22.95;64.16
40982;BME280;26708;50.304;19.028;2023-08-21T06:29:09;98696.03;;;23.18;63.96
40982;BME280;26708;50.304;19.028;2023-08-21T06:31:13;98709.81;;;23.28;63.61
40982;BME280;26708;50.304;19.028;2023-08-21T06:33:19;98849.03;;;24.10;63.12
40982;BME280;26708;50.304;19.028;2023-08-21T06:35:24;98701.00;;;23.26;63.05
40982;BME280;26708;50.304;19.028;2023-08-21T06:37:30;98611.81;;;22.77;61.73
40982;BME280;26708;50.304;19.028;2023-08-21T06:39:34;98717.63;;;23.14;60.80
40982;BME280;26708;50.304;19.028;2023-08-21T06:41:39;98869.56;;;24.26;60.53
40982;BME280;26708;50.304;19.028;2023-08-21T06:43:45;98857.06;;;23.93;60.58
40982;BME280;26708;50.304;19.028;2023-08-21T06:45:52;98776.63;;;23.62;60.40
40982;BME280;26708;50.304;19.028;2023-08-21T06:47:57;98724.19;;;23.25;60.48
40982;BME280;26708;50.304;19.028;2023-08-21T06:50:05;98618.13;;;22.58;60.50
40982;BME280;26708;50.304;19.028;2023-08-21T06:52:10;98650.91;;;22.95;60.16
40982;BME280;26708;50.304;19.028;2023-08-21T06:54:15;98930.59;;;24.54;59.96
40982;BME280;26708;50.304;19.028;2023-08-21T06:56:20;98877.13;;;24.18;59.99
40982;BME280;26708;50.304;19.028;2023-08-21T06:58:25;98827.16;;;23.85;59.93
40982;BME280;26708;50.304;19.028;2023-08-21T07:00:30;98601.78;;;22.64;59.46
40982;BME280;26708;50.304;19.028;2023-08-21T07:02:35;98954.38;;;24.60;59.80
40982;BME280;26708;50.304;19.028;2023-08-21T07:04:37;98841.16;;;24.07;59.81
40982;BME280;26708;50.304;19.028;2023-08-21T07:06:42;98947.13;;;24.62;59.73
40982;BME280;26708;50.304;19.028;2023-08-21T07:08:48;98911.50;;;24.43;60.14
40982;BME280;26708;50.304;19.028;2023-08-21T07:10:53;98723.25;;;23.26;60.02
40982;BME280;26708;50.304;19.028;2023-08-21T07:12:55;98688.44;;;22.92;59.77
40982;BME280;26708;50.304;19.028;2023-08-21T07:15:03;98734.50;;;23.33;60.25
40982;BME280;26708;50.304;19.028;2023-08-21T07:17:12;98765.00;;;23.46;60.07
40982;BME280;26708;50.304;19.028;2023-08-21T07:19:17;98894.03;;;24.19;60.10
40982;BME280;26708;50.304;19.028;2023-08-21T07:21:23;98905.22;;;24.10;60.29
40982;BME280;26708;50.304;19.028;2023-08-21T07:23:28;98951.53;;;24.46;60.39
40982;BME280;26708;50.304;19.028;2023-08-21T07:25:30;98973.81;;;24.46;60.47
40982;BME280;26708;50.304;19.028;2023-08-21T07:27:35;98739.53;;;23.22;60.45
40982;BME280;26708;50.304;19.028;2023-08-21T07:29:40;98878.16;;;23.99;60.72
40982;BME280;26708;50.304;19.028;2023-08-21T07:31:45;98848.13;;;23.75;60.50
40982;BME280;26708;50.304;19.028;2023-08-21T07:33:54;98664.31;;;22.77;60.49
40982;BME280;26708;50.304;19.028;2023-08-21T07:36:03;98756.78;;;23.15;60.75
40982;BME280;26708;50.304;19.028;2023-08-21T07:38:08;98737.41;;;23.10;60.96
40982;BME280;26708;50.304;19.028;2023-08-21T07:40:19;98603.72;;;22.25;60.76
40982;BME280;26708;50.304;19.028;2023-08-21T07:42:27;98908.06;;;23.90;61.11
40982;BME280;26708;50.304;19.028;2023-08-21T07:44:33;98898.44;;;23.86;61.06
40982;BME280;26708;50.304;19.028;2023-08-21T07:46:40;98865.34;;;23.70;61.46
40982;BME280;26708;50.304;19.028;2023-08-21T07:49:01;98890.59;;;23.64;61.98
40982;BME280;26708;50.304;19.028;2023-08-21T07:51:06;98769.66;;;23.07;62.02
40982;BME280;26708;50.304;19.028;2023-08-21T07:53:14;98679.81;;;22.33;61.90
40982;BME280;26708;50.304;19.028;2023-08-21T07:55:19;98739.16;;;22.75;61.81
40982;BME280;26708;50.304;19.028;2023-08-21T07:57:25;98762.81;;;23.01;61.83
40982;BME280;26708;50.304;19.028;2023-08-21T07:59:31;98876.00;;;23.71;62.04
40982;BME280;26708;50.304;19.028;2023-08-21T08:01:37;98942.28;;;24.00;62.21
40982;BME280;26708;50.304;19.028;2023-08-21T08:03:41;98889.13;;;23.76;62.39
40982;BME280;26708;50.304;19.028;2023-08-21T08:05:50;98988.72;;;24.16;62.17
40982;BME280;26708;50.304;19.028;2023-08-21T08:07:55;98766.25;;;23.03;62.46
40982;BME280;26708;50.304;19.028;2023-08-21T08:10:00;98957.91;;;24.26;62.12
40982;BME280;26708;50.304;19.028;2023-08-21T08:12:06;98852.47;;;23.78;61.66
40982;BME280;26708;50.304;19.028;2023-08-21T08:14:11;98854.88;;;23.84;61.77
40982;BME280;26708;50.304;19.028;2023-08-21T08:16:16;98866.56;;;23.81;61.42
40982;BME280;26708;50.304;19.028;2023-08-21T08:18:22;98920.44;;;24.09;61.83
40982;BME280;26708;50.304;19.028;2023-08-21T08:20:27;98830.28;;;23.76;61.55
40982;BME280;26708;50.304;19.028;2023-08-21T08:22:35;98714.78;;;23.00;61.71
40982;BME280;26708;50.304;19.028;2023-08-21T08:24:41;98893.91;;;24.22;61.37
40982;BME280;26708;50.304;19.028;2023-08-21T08:26:45;98670.78;;;22.90;60.90
40982;BME280;26708;50.304;19.028;2023-08-21T08:28:50;98784.00;;;23.74;61.11
40982;BME280;26708;50.304;19.028;2023-08-21T08:30:57;98891.19;;;24.39;61.30
40982;BME280;26708;50.304;19.028;2023-08-21T08:33:02;98775.84;;;23.77;60.96
40982;BME280;26708;50.304;19.028;2023-08-21T08:35:05;98874.81;;;24.28;60.94
40982;BME280;26708;50.304;19.028;2023-08-21T08:37:11;98968.88;;;24.88;60.74
40982;BME280;26708;50.304;19.028;2023-08-21T08:39:32;98781.44;;;23.89;60.54
40982;BME280;26708;50.304;19.028;2023-08-21T08:41:48;98742.63;;;23.81;60.80
40982;BME280;26708;50.304;19.028;2023-08-21T08:44:03;98770.69;;;23.91;60.51
40982;BME280;26708;50.304;19.028;2023-08-21T08:46:11;98856.44;;;24.71;60.40
40982;BME280;26708;50.304;19.028;2023-08-21T08:48:16;98643.00;;;23.45;59.87
40982;BME280;26708;50.304;19.028;2023-08-21T08:50:28;98766.38;;;24.21;60.02
40982;BME280;26708;50.304;19.028;2023-08-21T08:52:46;98657.28;;;23.61;59.79
40982;BME280;26708;50.304;19.028;2023-08-21T08:55:14;98863.44;;;24.89;59.84
40982;BME280;26708;50.304;19.028;2023-08-21T08:57:20;98635.81;;;23.45;60.09
40982;BME280;26708;50.304;19.028;2023-08-21T08:59:23;98853.38;;;24.77;60.13
40982;BME280;26708;50.304;19.028;2023-08-21T09:01:29;98943.84;;;25.52;59.88
40982;BME280;26708;50.304;19.028;2023-08-21T09:03:41;98606.41;;;23.45;59.64
40982;BME280;26708;50.304;19.028;2023-08-21T09:05:47;98721.66;;;24.23;59.48
40982;BME280;26708;50.304;19.028;2023-08-21T09:08:10;98966.03;;;25.71;59.08
40982;BME280;26708;50.304;19.028;2023-08-21T09:10:19;98896.78;;;25.31;58.96
40982;BME280;26708;50.304;19.028;2023-08-21T09:12:24;98586.38;;;23.69;58.77
40982;BME280;26708;50.304;19.028;2023-08-21T09:14:29;98687.28;;;24.31;58.54
40982;BME280;26708;50.304;19.028;2023-08-21T09:16:33;98950.06;;;25.84;58.92
40982;BME280;26708;50.304;19.028;2023-08-21T09:18:38;98743.38;;;24.65;58.65
40982;BME280;26708;50.304;19.028;2023-08-21T09:20:48;98687.03;;;24.35;58.72
40982;BME280;26708;50.304;19.028;2023-08-21T09:22:54;98759.34;;;24.82;59.04
40982;BME280;26708;50.304;19.028;2023-08-21T09:25:03;98877.66;;;25.68;58.85
40982;BME280;26708;50.304;19.028;2023-08-21T09:27:18;98703.66;;;24.57;58.69
40982;BME280;26708;50.304;19.028;2023-08-21T09:29:25;98661.78;;;24.39;58.63
40982;BME280;26708;50.304;19.028;2023-08-21T09:31:31;98880.50;;;25.65;58.39
40982;BME280;26708;50.304;19.028;2023-08-21T09:33:40;98774.16;;;25.04;58.47
40982;BME280;26708;50.304;19.028;2023-08-21T09:36:18;98760.13;;;24.99;58.11
40982;BME280;26708;50.304;19.028;2023-08-21T09:38:30;98653.50;;;24.44;58.33
40982;BME280;26708;50.304;19.028;2023-08-21T09:40:41;98777.94;;;25.31;58.22
40982;BME280;26708;50.304;19.028;2023-08-21T09:42:55;98627.03;;;24.55;57.86
40982;BME280;26708;50.304;19.028;2023-08-21T09:45:26;98520.31;;;23.71;57.44
40982;BME280;26708;50.304;19.028;2023-08-21T09:47:33;98737.97;;;25.26;58.08
40982;BME280;26708;50.304;19.028;2023-08-21T09:49:40;98666.63;;;24.95;57.95
40982;BME280;26708;50.304;19.028;2023-08-21T09:51:47;98729.22;;;25.38;57.91
40982;BME280;26708;50.304;19.028;2023-08-21T09:53:54;98613.72;;;24.69;57.66
40982;BME280;26708;50.304;19.028;2023-08-21T09:56:03;98674.06;;;25.05;57.71
40982;BME280;26708;50.304;19.028;2023-08-21T09:58:09;98532.25;;;24.42;57.65
40982;BME280;26708;50.304;19.028;2023-08-21T10:00:19;98694.38;;;25.38;57.02
40982;BME280;26708;50.304;19.028;2023-08-21T10:02:29;98832.09;;;26.26;56.08
40982;BME280;26708;50.304;19.028;2023-08-21T10:04:36;98828.78;;;26.22;55.61
40982;BME280;26708;50.304;19.028;2023-08-21T10:06:46;98638.47;;;25.17;55.55
40982;BME280;26708;50.304;19.028;2023-08-21T10:08:54;98891.84;;;26.73;55.49
40982;BME280;26708;50.304;19.028;2023-08-21T10:11:00;98648.00;;;25.50;55.47
40982;BME280;26708;50.304;19.028;2023-08-21T10:13:10;98615.81;;;25.36;55.25
40982;BME280;26708;50.304;19.028;2023-08-21T10:15:19;98536.63;;;24.88;55.42
40982;BME280;26708;50.304;19.028;2023-08-21T10:17:25;98814.66;;;26.61;55.17
40982;BME280;26708;50.304;19.028;2023-08-21T10:19:35;98744.16;;;26.29;55.54
40982;BME280;26708;50.304;19.028;2023-08-21T10:21:49;98622.06;;;25.51;55.32
40982;BME280;26708;50.304;19.028;2023-08-21T10:23:55;98690.06;;;26.07;54.82
40982;BME280;26708;50.304;19.028;2023-08-21T10:26:01;98696.41;;;26.20;54.73
40982;BME280;26708;50.304;19.028;2023-08-21T10:28:14;98873.59;;;27.20;54.53
40982;BME280;26708;50.304;19.028;2023-08-21T10:30:24;98638.88;;;25.96;54.35
40982;BME280;26708;50.304;19.028;2023-08-21T10:32:30;98828.03;;;27.17;53.91
40982;BME280;26708;50.304;19.028;2023-08-21T10:34:37;98834.09;;;27.20;53.09
40982;BME280;26708;50.304;19.028;2023-08-21T10:37:06;98826.97;;;27.19;53.08
40982;BME280;26708;50.304;19.028;2023-08-21T10:39:15;98699.47;;;26.28;53.64
40982;BME280;26708;50.304;19.028;2023-08-21T10:41:28;98637.81;;;25.99;53.64
40982;BME280;26708;50.304;19.028;2023-08-21T10:43:42;98739.88;;;26.67;53.28
40982;BME280;26708;50.304;19.028;2023-08-21T10:45:54;98857.81;;;27.28;53.22
40982;BME280;26708;50.304;19.028;2023-08-21T10:48:00;98720.47;;;26.50;53.42
40982;BME280;26708;50.304;19.028;2023-08-21T10:50:07;98638.56;;;26.15;53.21
40982;BME280;26708;50.304;19.028;2023-08-21T10:52:14;98826.41;;;27.14;53.10
40982;BME280;26708;50.304;19.028;2023-08-21T10:54:22;98681.00;;;26.50;53.56
40982;BME280;26708;50.304;19.028;2023-08-21T10:58:54;98607.78;;;26.20;53.22
40982;BME280;26708;50.304;19.028;2023-08-21T11:01:00;98789.69;;;27.27;53.10
40982;BME280;26708;50.304;19.028;2023-08-21T11:03:06;98718.38;;;26.67;52.69
40982;BME280;26708;50.304;19.028;2023-08-21T11:05:12;98796.09;;;27.39;52.47
40982;BME280;26708;50.304;19.028;2023-08-21T11:07:19;98882.03;;;27.81;52.88
40982;BME280;26708;50.304;19.028;2023-08-21T11:09:24;98806.78;;;27.26;53.17
40982;BME280;26708;50.304;19.028;2023-08-21T11:11:30;98765.34;;;27.16;52.85
40982;BME280;26708;50.304;19.028;2023-08-21T11:13:54;98897.34;;;27.80;52.34
40982;BME280;26708;50.304;19.028;2023-08-21T11:16:06;98536.75;;;25.71;52.76
40982;BME280;26708;50.304;19.028;2023-08-21T11:18:15;98560.88;;;25.85;53.23
40982;BME280;26708;50.304;19.028;2023-08-21T11:20:30;98774.19;;;27.04;52.81
40982;BME280;26708;50.304;19.028;2023-08-21T11:22:37;98866.88;;;27.53;53.00
40982;BME280;26708;50.304;19.028;2023-08-21T11:24:44;98616.81;;;26.05;53.22
40982;BME280;26708;50.304;19.028;2023-08-21T11:26:54;98693.84;;;26.59;53.17
40982;BME280;26708;50.304;19.028;2023-08-21T11:29:04;98683.69;;;26.50;53.82
40982;BME280;26708;50.304;19.028;2023-08-21T11:31:10;98526.09;;;25.70;54.15
40982;BME280;26708;50.304;19.028;2023-08-21T11:33:19;98877.28;;;27.72;54.01
40982;BME280;26708;50.304;19.028;2023-08-21T11:35:27;98682.13;;;26.60;54.17
40982;BME280;26708;50.304;19.028;2023-08-21T11:37:42;98596.88;;;26.09;54.34
40982;BME280;26708;50.304;19.028;2023-08-21T11:39:54;98819.06;;;27.30;54.80
40982;BME280;26708;50.304;19.028;2023-08-21T11:41:59;98487.03;;;25.38;54.57
40982;BME280;26708;50.304;19.028;2023-08-21T11:44:23;98617.41;;;26.24;54.15
40982;BME280;26708;50.304;19.028;2023-08-21T11:47:03;98811.94;;;27.43;53.22
40982;BME280;26708;50.304;19.028;2023-08-21T11:49:17;98876.66;;;27.81;52.59
40982;BME280;26708;50.304;19.028;2023-08-21T11:51:26;98841.28;;;27.60;53.06
40982;BME280;26708;50.304;19.028;2023-08-21T11:53:34;98551.47;;;25.92;52.85
40982;BME280;26708;50.304;19.028;2023-08-21T11:55:42;98745.38;;;27.06;53.42
40982;BME280;26708;50.304;19.028;2023-08-21T11:57:50;98603.66;;;26.15;53.13
40982;BME280;26708;50.304;19.028;2023-08-21T12:00:01;98837.84;;;27.58;53.25
40982;BME280;26708;50.304;19.028;2023-08-21T12:02:14;98779.53;;;27.18;53.21
40982;BME280;26708;50.304;19.028;2023-08-21T12:04:23;98753.22;;;26.97;53.02
40982;BME280;26708;50.304;19.028;2023-08-21T12:06:33;98816.63;;;27.54;52.60
40982;BME280;26708;50.304;19.028;2023-08-21T12:08:39;98820.84;;;27.58;52.49
40982;BME280;26708;50.304;19.028;2023-08-21T12:10:50;98718.56;;;26.92;52.37
40982;BME280;26708;50.304;19.028;2023-08-21T12:12:57;98694.66;;;26.88;52.33
40982;BME280;26708;50.304;19.028;2023-08-21T12:15:06;98755.25;;;27.20;52.83
40982;BME280;26708;50.304;19.028;2023-08-21T12:17:14;98830.84;;;27.68;53.01
40982;BME280;26708;50.304;19.028;2023-08-21T12:19:25;98665.13;;;26.74;53.13
40982;BME280;26708;50.304;19.028;2023-08-21T12:21:32;98660.06;;;26.69;53.31
40982;BME280;26708;50.304;19.028;2023-08-21T12:23:43;98747.84;;;27.23;53.05
40982;BME280;26708;50.304;19.028;2023-08-21T12:25:57;98556.59;;;26.09;53.00
40982;BME280;26708;50.304;19.028;2023-08-21T12:28:14;98895.38;;;27.96;53.40
40982;BME280;26708;50.304;19.028;2023-08-21T12:30:24;98562.94;;;26.22;52.25
40982;BME280;26708;50.304;19.028;2023-08-21T12:32:35;98802.94;;;27.57;51.58
40982;BME280;26708;50.304;19.028;2023-08-21T12:34:42;98864.28;;;28.05;51.50
40982;BME280;26708;50.304;19.028;2023-08-21T12:36:55;98805.88;;;27.66;52.47
40982;BME280;26708;50.304;19.028;2023-08-21T12:39:07;98623.09;;;26.73;51.71
40982;BME280;26708;50.304;19.028;2023-08-21T12:41:15;98583.28;;;26.39;50.69
40982;BME280;26708;50.304;19.028;2023-08-21T12:43:27;98634.72;;;26.59;50.64